sensor_id;sensor_type;location;lat;lon;timestamp;pressure;altitude;pressure_sealevel;temperature;humidity
15272;BME280;7737;51.578;7.268;2024-03-08T00:00:54;101379.94;;;3.08;100.00
15272;BME280;7737;51.578;7.268;2024-03-08T00:03:20;101381.69;;;3.10;100.00
15272;BME280;7737;51.578;7.268;2024-03-08T00:05:48;101372.06;;;3.08;100.00
15272;BME280;7737;51.578;7.268;2024-03-08T00:08:15;101372.09;;;3.02;100.00
15272;BME280;7737;51.578;7.268;2024-03-08T00:10:41;101366.84;;;3.02;100.00
15272;BME280;7737;51.578;7.268;2024-03-08T00:13:08;101372.81;;;3.21;100.00
15272;BME280;7737;51.578;7.268;2024-03-08T00:15:34;101365.00;;;3.17;100.00
15272;BME280;7737;51.578;7.268;2024-03-08T00:18:01;101368.47;;;3.19;100.00
15272;BME280;7737;51.578;7.268;2024-03-08T00:20:27;101366.59;;;3.33;100.00
15272;BME280;7737;51.578;7.268;2024-03-08T00:22:55;101358.00;;;3.13;100.00
15272;BME280;7737;51.578;7.268;2024-03-08T00:25:23;101361.63;;;2.99;100.00
15272;BME280;7737;51.578;7.268;2024-03-08T00:27:49;101352.75;;;3.13;100.00
15272;BME280;7737;51.578;7.268;2024-03-08T00:30:16;101358.13;;;3.00;100.00
15272;BME280;7737;51.578;7.268;2024-03-08T00:32:43;101351.25;;;2.84;100.00
15272;BME280;7737;51.578;7.268;2024-03-08T00:35:09;101358.03;;;3.11;100.00
15272;BME280;7737;51.578;7.268;2024-03-08T00:37:37;101356.47;;;2.90;100.00
15272;BME280;7737;51.578;7.268;2024-03-08T00:40:06;101358.09;;;3.03;100.00
15272;BME280;7737;51.578;7.268;2024-03-08T00:42:34;101353.00;;;2.85;100.00
15272;BME280;7737;51.578;7.268;2024-03-08T00:45:01;101358.25;;;2.85;100.00
15272;BME280;7737;51.578;7.268;2024-03-08T00:47:28;101346.09;;;2.75;100.00
15272;BME280;7737;51.578;7.268;2024-03-08T00:49:54;101349.56;;;2.80;100.00
15272;BME280;7737;51.578;7.268;2024-03-08T00:52:21;101348.78;;;2.66;100.00
15272;BME280;7737;51.578;7.268;2024-03-08T00:54:49;101343.59;;;2.59;100.00
15272;BME280;7737;51.578;7.268;2024-03-08T00:57:17;101340.13;;;2.54;100.00
15272;BME280;7737;51.578;7.268;2024-03-08T00:59:44;101339.22;;;2.59;100.00
15272;BME280;7737;51.578;7.268;2024-03-08T01:02:10;101334.03;;;2.47;100.00
15272;BME280;7737;51.578;7.268;2024-03-08T01:04:37;101341.97;;;2.38;100.00
15272;BME280;7737;51.578;7.268;2024-03-08T01:07:03;101347.16;;;2.45;100.00
15272;BME280;7737;51.578;7.268;2024-03-08T01:09:30;101346.38;;;2.33;100.00
15272;BME280;7737;51.578;7.268;2024-03-08T01:11:57;101330.56;;;2.42;100.00
15272;BME280;7737;51.578;7.268;2024-03-08T01:14:25;101341.97;;;2.36;100.00
15272;BME280;7737;51.578;7.268;2024-03-08T01:16:51;101336.72;;;2.39;100.00
15272;BME280;7737;51.578;7.268;2024-03-08T01:19:18;101334.03;;;2.44;100.00
15272;BME280;7737;51.578;7.268;2024-03-08T01:21:44;101330.53;;;2.48;100.00
15272;BME280;7737;51.578;7.268;2024-03-08T01:24:11;101331.34;;;2.55;100.00
15272;BME280;7737;51.578;7.268;2024-03-08T01:26:38;101321.78;;;2.47;100.00
15272;BME280;7737;51.578;7.268;2024-03-08T01:29:04;101314.94;;;2.24;100.00
15272;BME280;7737;51.578;7.268;2024-03-08T01:31:32;101312.34;;;2.18;100.00
15272;BME280;7737;51.578;7.268;2024-03-08T01:33:59;101314.16;;;2.14;100.00
15272;BME280;7737;51.578;7.268;2024-03-08T01:36:26;101313.28;;;2.14;100.00
15272;BME280;7737;51.578;7.268;2024-03-08T01:38:52;101316.78;;;2.10;100.00
15272;BME280;7737;51.578;7.268;2024-03-08T01:41:19;101310.75;;;1.93;100.00
15272;BME280;7737;51.578;7.268;2024-03-08T01:43:45;101306.41;;;1.89;100.00
15272;BME280;7737;51.578;7.268;2024-03-08T01:46:15;101302.88;;;1.94;100.00
15272;BME280;7737;51.578;7.268;2024-03-08T01:48:45;101305.50;;;1.91;100.00
15272;BME280;7737;51.578;7.268;2024-03-08T01:51:12;101304.59;;;2.00;100.00
15272;BME280;7737;51.578;7.268;2024-03-08T01:53:40;101303.72;;;1.99;100.00
15272;BME280;7737;51.578;7.268;2024-03-08T01:56:11;101293.22;;;2.02;100.00
15272;BME280;7737;51.578;7.268;2024-03-08T01:58:40;101301.13;;;1.98;100.00
15272;BME280;7737;51.578;7.268;2024-03-08T02:01:07;101290.63;;;1.98;100.00
15272;BME280;7737;51.578;7.268;2024-03-08T02:03:34;101297.69;;;1.87;100.00
15272;BME280;7737;51.578;7.268;2024-03-08T02:06:02;101288.88;;;1.97;100.00
15272;BME280;7737;51.578;7.268;2024-03-08T02:08:30;101283.69;;;1.91;100.00
15272;BME280;7737;51.578;7.268;2024-03-08T02:10:57;101288.91;;;1.89;100.00
15272;BME280;7737;51.578;7.268;2024-03-08T02:13:23;101285.47;;;1.82;100.00
15272;BME280;7737;51.578;7.268;2024-03-08T02:15:51;101284.53;;;1.88;100.00
15272;BME280;7737;51.578;7.268;2024-03-08T02:18:16;101280.19;;;1.89;100.00
15272;BME280;7737;51.578;7.268;2024-03-08T02:20:45;101281.09;;;1.81;100.00
15272;BME280;7737;51.578;7.268;2024-03-08T02:23:12;101277.63;;;1.82;100.00
15272;BME280;7737;51.578;7.268;2024-03-08T02:25:40;101283.72;;;1.88;100.00
15272;BME280;7737;51.578;7.268;2024-03-08T02:28:07;101284.50;;;2.00;100.00
15272;BME280;7737;51.578;7.268;2024-03-08T02:30:35;101281.03;;;1.94;100.00
15272;BME280;7737;51.578;7.268;2024-03-08T02:33:01;101276.63;;;2.02;100.00
15272;BME280;7737;51.578;7.268;2024-03-08T02:35:29;101264.44;;;1.92;100.00
15272;BME280;7737;51.578;7.268;2024-03-08T02:37:57;101269.69;;;1.89;100.00
15272;BME280;7737;51.578;7.268;2024-03-08T02:40:23;101267.06;;;1.95;100.00
15272;BME280;7737;51.578;7.268;2024-03-08T02:42:50;101261.84;;;1.87;100.00
15272;BME280;7737;51.578;7.268;2024-03-08T02:45:17;101266.22;;;1.90;100.00
15272;BME280;7737;51.578;7.268;2024-03-08T02:47:43;101257.50;;;1.81;100.00
15272;BME280;7737;51.578;7.268;2024-03-08T02:50:10;101261.88;;;1.82;100.00
15272;BME280;7737;51.578;7.268;2024-03-08T02:52:41;101260.03;;;2.00;100.00
15272;BME280;7737;51.578;7.268;2024-03-08T02:55:09;101262.69;;;1.92;100.00
15272;BME280;7737;51.578;7.268;2024-03-08T02:57:40;101258.34;;;1.90;100.00
15272;BME280;7737;51.578;7.268;2024-03-08T03:00:08;101254.88;;;1.83;100.00
15272;BME280;7737;51.578;7.268;2024-03-08T03:02:35;101253.13;;;1.83;100.00
15272;BME280;7737;51.578;7.268;2024-03-08T03:05:02;101243.59;;;1.73;100.00
15272;BME280;7737;51.578;7.268;2024-03-08T03:07:31;101241.88;;;1.66;100.00
15272;BME280;7737;51.578;7.268;2024-03-08T03:09:58;101249.69;;;1.72;100.00
15272;BME280;7737;51.578;7.268;2024-03-08T03:12:26;101240.94;;;1.78;100.00
15272;BME280;7737;51.578;7.268;2024-03-08T03:14:53;101234.88;;;1.71;100.00
15272;BME280;7737;51.578;7.268;2024-03-08T03:17:21;101238.34;;;1.70;100.00
15272;BME280;7737;51.578;7.268;2024-03-08T03:19:48;101235.75;;;1.69;100.00
15272;BME280;7737;51.578;7.268;2024-03-08T03:22:14;101232.25;;;1.71;100.00
15272;BME280;7737;51.578;7.268;2024-03-08T03:24:41;101235.72;;;1.70;100.00
15272;BME280;7737;51.578;7.268;2024-03-08T03:27:07;101232.19;;;1.77;100.00
15272;BME280;7737;51.578;7.268;2024-03-08T03:29:38;101233.09;;;1.73;100.00
15272;BME280;7737;51.578;7.268;2024-03-08T03:32:05;101226.16;;;1.63;100.00
15272;BME280;7737;51.578;7.268;2024-03-08T03:34:33;101229.69;;;1.61;100.00
15272;BME280;7737;51.578;7.268;2024-03-08T03:37:01;101225.28;;;1.66;100.00
15272;BME280;7737;51.578;7.268;2024-03-08T03:39:28;101231.34;;;1.72;100.00
15272;BME280;7737;51.578;7.268;2024-03-08T03:41:57;101223.53;;;1.62;100.00
15272;BME280;7737;51.578;7.268;2024-03-08T03:44:23;101218.34;;;1.59;100.00
15272;BME280;7737;51.578;7.268;2024-03-08T03:46:51;101218.41;;;1.41;100.00
15272;BME280;7737;51.578;7.268;2024-03-08T03:49:17;101214.03;;;1.47;100.00
15272;BME280;7737;51.578;7.268;2024-03-08T03:51:44;101213.94;;;1.62;100.00
15272;BME280;7737;51.578;7.268;2024-03-08T03:54:10;101218.31;;;1.60;100.00
15272;BME280;7737;51.578;7.268;2024-03-08T03:56:37;101210.47;;;1.54;100.00
15272;BME280;7737;51.578;7.268;2024-03-08T03:59:05;101209.63;;;1.49;100.00
15272;BME280;7737;51.578;7.268;2024-03-08T04:01:31;101213.13;;;1.51;100.00
15272;BME280;7737;51.578;7.268;2024-03-08T04:03:59;101203.53;;;1.53;100.00
15272;BME280;7737;51.578;7.268;2024-03-08T04:06:26;101206.16;;;1.50;100.00
15272;BME280;7737;51.578;7.268;2024-03-08T04:08:53;101206.16;;;1.53;100.00
15272;BME280;7737;51.578;7.268;2024-03-08T04:11:20;101201.69;;;1.66;100.00
15272;BME280;7737;51.578;7.268;2024-03-08T04:13:46;101200.00;;;1.57;100.00
15272;BME280;7737;51.578;7.268;2024-03-08T04:16:13;101194.84;;;1.45;100.00
15272;BME280;7737;51.578;7.268;2024-03-08T04:18:40;101201.78;;;1.46;100.00
15272;BME280;7737;51.578;7.268;2024-03-08T04:21:08;101204.31;;;1.64;100.00
15272;BME280;7737;51.578;7.268;2024-03-08T04:23:34;101190.44;;;1.47;100.00
15272;BME280;7737;51.578;7.268;2024-03-08T04:26:01;101190.44;;;1.47;100.00
15272;BME280;7737;51.578;7.268;2024-03-08T04:28:28;101197.44;;;1.47;100.00
15272;BME280;7737;51.578;7.268;2024-03-08T04:30:55;101198.31;;;1.47;100.00
15272;BME280;7737;51.578;7.268;2024-03-08T04:33:21;101196.59;;;1.42;100.00
15272;BME280;7737;51.578;7.268;2024-03-08T04:35:48;101195.72;;;1.38;100.00
15272;BME280;7737;51.578;7.268;2024-03-08T04:38:16;101201.78;;;1.46;100.00
15272;BME280;7737;51.578;7.268;2024-03-08T04:40:43;101194.00;;;1.37;100.00
15272;BME280;7737;51.578;7.268;2024-03-08T04:43:09;101194.03;;;1.30;100.00
15272;BME280;7737;51.578;7.268;2024-03-08T04:45:36;101190.53;;;1.24;100.00
15272;BME280;7737;51.578;7.268;2024-03-08T04:48:03;101181.78;;;1.38;100.00
15272;BME280;7737;51.578;7.268;2024-03-08T04:50:30;101185.28;;;1.34;100.00
15272;BME280;7737;51.578;7.268;2024-03-08T04:52:56;101184.44;;;1.27;100.00
15272;BME280;7737;51.578;7.268;2024-03-08T04:55:24;101180.91;;;1.34;100.00
15272;BME280;7737;51.578;7.268;2024-03-08T04:57:51;101174.84;;;1.23;100.00
15272;BME280;7737;51.578;7.268;2024-03-08T05:00:18;101179.25;;;1.15;100.00
15272;BME280;7737;51.578;7.268;2024-03-08T05:02:45;101171.38;;;1.15;100.00
15272;BME280;7737;51.578;7.268;2024-03-08T05:05:12;101173.13;;;1.14;100.00
15272;BME280;7737;51.578;7.268;2024-03-08T05:07:40;101170.56;;;1.01;100.00
15272;BME280;7737;51.578;7.268;2024-03-08T05:10:09;101166.22;;;1.03;100.00
15272;BME280;7737;51.578;7.268;2024-03-08T05:12:37;101167.09;;;0.99;100.00
15272;BME280;7737;51.578;7.268;2024-03-08T05:15:04;101172.31;;;0.99;100.00
15272;BME280;7737;51.578;7.268;2024-03-08T05:17:32;101172.31;;;1.05;100.00
15272;BME280;7737;51.578;7.268;2024-03-08T05:19:59;101165.31;;;1.01;100.00
15272;BME280;7737;51.578;7.268;2024-03-08T05:22:25;101169.72;;;0.96;100.00
15272;BME280;7737;51.578;7.268;2024-03-08T05:24:53;101170.56;;;1.01;100.00
15272;BME280;7737;51.578;7.268;2024-03-08T05:27:19;101163.59;;;1.03;100.00
15272;BME280;7737;51.578;7.268;2024-03-08T05:29:47;101164.47;;;1.00;100.00
15272;BME280;7737;51.578;7.268;2024-03-08T05:32:14;101170.59;;;0.98;100.00
15272;BME280;7737;51.578;7.268;2024-03-08T05:34:40;101167.09;;;0.94;100.00
15272;BME280;7737;51.578;7.268;2024-03-08T05:37:07;101168.88;;;0.92;100.00
15272;BME280;7737;51.578;7.268;2024-03-08T05:39:33;101163.59;;;1.06;100.00
15272;BME280;7737;51.578;7.268;2024-03-08T05:42:00;101161.84;;;0.99;100.00
15272;BME280;7737;51.578;7.268;2024-03-08T05:44:26;101155.75;;;0.98;100.00
15272;BME280;7737;51.578;7.268;2024-03-08T05:46:55;101151.38;;;1.02;100.00
15272;BME280;7737;51.578;7.268;2024-03-08T05:49:21;101152.25;;;0.99;100.00
15272;BME280;7737;51.578;7.268;2024-03-08T05:51:50;101159.25;;;0.97;100.00
15272;BME280;7737;51.578;7.268;2024-03-08T05:54:16;101144.34;;;1.16;100.00
15272;BME280;7737;51.578;7.268;2024-03-08T05:56:43;101153.13;;;0.98;100.00
15272;BME280;7737;51.578;7.268;2024-03-08T05:59:10;101154.91;;;0.92;100.00
15272;BME280;7737;51.578;7.268;2024-03-08T06:01:36;101153.13;;;0.98;100.00
15272;BME280;7737;51.578;7.268;2024-03-08T06:04:04;101146.16;;;0.93;100.00
15272;BME280;7737;51.578;7.268;2024-03-08T06:06:31;101155.75;;;0.97;100.00
15272;BME280;7737;51.578;7.268;2024-03-08T06:08:58;101156.53;;;1.14;100.00
15272;BME280;7737;51.578;7.268;2024-03-08T06:11:25;101153.94;;;1.12;100.00
15272;BME280;7737;51.578;7.268;2024-03-08T06:13:53;101154.00;;;1.00;100.00
15272;BME280;7737;51.578;7.268;2024-03-08T06:16:25;101149.66;;;0.98;100.00
15272;BME280;7737;51.578;7.268;2024-03-08T06:18:54;101147.91;;;1.00;100.00
15272;BME280;7737;51.578;7.268;2024-03-08T06:21:22;101146.16;;;0.93;100.00
15272;BME280;7737;51.578;7.268;2024-03-08T06:23:52;101144.34;;;1.13;100.00
15272;BME280;7737;51.578;7.268;2024-03-08T06:26:20;101154.84;;;1.07;100.00
15272;BME280;7737;51.578;7.268;2024-03-08T06:28:47;101147.88;;;1.06;100.00
15272;BME280;7737;51.578;7.268;2024-03-08T06:31:13;101149.63;;;1.01;100.00
15272;BME280;7737;51.578;7.268;2024-03-08T06:33:41;101142.66;;;1.06;100.00
15272;BME280;7737;51.578;7.268;2024-03-08T06:36:08;101144.38;;;1.10;100.00
15272;BME280;7737;51.578;7.268;2024-03-08T06:38:38;101138.25;;;1.12;100.00
15272;BME280;7737;51.578;7.268;2024-03-08T06:41:07;101149.53;;;1.20;100.00
15272;BME280;7737;51.578;7.268;2024-03-08T06:43:34;101150.41;;;1.27;100.00
15272;BME280;7737;51.578;7.268;2024-03-08T06:46:01;101140.75;;;1.31;100.00
15272;BME280;7737;51.578;7.268;2024-03-08T06:48:29;101140.75;;;1.31;100.00
15272;BME280;7737;51.578;7.268;2024-03-08T06:50:55;101130.19;;;1.50;100.00
15272;BME280;7737;51.578;7.268;2024-03-08T06:53:22;101129.28;;;1.51;100.00
15272;BME280;7737;51.578;7.268;2024-03-08T06:55:51;101137.09;;;1.63;100.00
15272;BME280;7737;51.578;7.268;2024-03-08T06:58:18;101141.47;;;1.61;100.00
15272;BME280;7737;51.578;7.268;2024-03-08T07:00:44;101139.63;;;1.74;100.00
15272;BME280;7737;51.578;7.268;2024-03-08T07:03:11;101131.78;;;1.72;100.00
15272;BME280;7737;51.578;7.268;2024-03-08T07:05:42;101138.72;;;1.82;100.00
15272;BME280;7737;51.578;7.268;2024-03-08T07:08:09;101135.16;;;1.90;100.00
15272;BME280;7737;51.578;7.268;2024-03-08T07:10:35;101130.75;;;1.95;100.00
15272;BME280;7737;51.578;7.268;2024-03-08T07:13:04;101126.31;;;2.00;100.00
15272;BME280;7737;51.578;7.268;2024-03-08T07:15:30;101134.97;;;2.09;100.00
15272;BME280;7737;51.578;7.268;2024-03-08T07:17:57;101132.31;;;2.17;100.00
15272;BME280;7737;51.578;7.268;2024-03-08T07:20:25;101123.47;;;2.27;100.00
15272;BME280;7737;51.578;7.268;2024-03-08T07:22:51;101124.28;;;2.35;100.00
15272;BME280;7737;51.578;7.268;2024-03-08T07:25:19;101123.34;;;2.39;100.00
15272;BME280;7737;51.578;7.268;2024-03-08T07:27:50;101123.25;;;2.46;100.00
15272;BME280;7737;51.578;7.268;2024-03-08T07:30:19;101120.59;;;2.54;100.00
15272;BME280;7737;51.578;7.268;2024-03-08T07:33:04;101108.13;;;2.71;100.00
15272;BME280;7737;51.578;7.268;2024-03-08T07:35:32;101104.44;;;2.87;100.00
15272;BME280;7737;51.578;7.268;2024-03-08T07:37:59;101098.38;;;2.81;100.00
15272;BME280;7737;51.578;7.268;2024-03-08T07:40:26;101094.84;;;2.83;100.00
15272;BME280;7737;51.578;7.268;2024-03-08T07:42:52;101093.84;;;2.96;100.00
15272;BME280;7737;51.578;7.268;2024-03-08T07:45:20;101084.97;;;3.06;100.00
15272;BME280;7737;51.578;7.268;2024-03-08T07:47:47;101087.47;;;3.14;100.00
15272;BME280;7737;51.578;7.268;2024-03-08T07:50:14;101075.06;;;3.25;100.00
15272;BME280;7737;51.578;7.268;2024-03-08T07:52:41;101081.00;;;3.38;100.00
15272;BME280;7737;51.578;7.268;2024-03-08T07:55:08;101070.25;;;3.53;100.00
15272;BME280;7737;51.578;7.268;2024-03-08T07:57:36;101067.63;;;3.53;100.00
15272;BME280;7737;51.578;7.268;2024-03-08T08:00:04;101064.84;;;3.65;100.00
15272;BME280;7737;51.578;7.268;2024-03-08T08:02:35;101053.38;;;3.69;100.00
15272;BME280;7737;51.578;7.268;2024-03-08T08:05:02;101053.06;;;3.87;100.00
15272;BME280;7737;51.578;7.268;2024-03-08T08:07:29;101046.13;;;3.83;100.00
15272;BME280;7737;51.578;7.268;2024-03-08T08:09:55;101040.69;;;3.92;100.00
15272;BME280;7737;51.578;7.268;2024-03-08T08:12:22;101038.69;;;4.06;100.00
15272;BME280;7737;51.578;7.268;2024-03-08T08:14:48;101030.50;;;4.21;100.00
15272;BME280;7737;51.578;7.268;2024-03-08T08:17:15;101022.75;;;4.15;100.00
15272;BME280;7737;51.578;7.268;2024-03-08T08:19:43;101018.97;;;4.30;100.00
15272;BME280;7737;51.578;7.268;2024-03-08T08:22:10;101019.53;;;4.46;100.00
15272;BME280;7737;51.578;7.268;2024-03-08T08:24:36;101012.47;;;4.48;100.00
15272;BME280;7737;51.578;7.268;2024-03-08T08:27:03;101002.56;;;4.60;100.00
15272;BME280;7737;51.578;7.268;2024-03-08T08:29:30;100994.69;;;4.59;100.00
15272;BME280;7737;51.578;7.268;2024-03-08T08:31:58;100996.31;;;4.66;100.00
15272;BME280;7737;51.578;7.268;2024-03-08T08:34:25;100988.72;;;4.90;100.00
15272;BME280;7737;51.578;7.268;2024-03-08T08:36:53;100978.44;;;4.80;100.00
15272;BME280;7737;51.578;7.268;2024-03-08T08:39:19;100974.38;;;5.04;100.00
15272;BME280;7737;51.578;7.268;2024-03-08T08:41:48;100969.41;;;4.90;100.00
15272;BME280;7737;51.578;7.268;2024-03-08T08:44:14;100960.97;;;5.14;100.00
15272;BME280;7737;51.578;7.268;2024-03-08T08:46:41;100953.72;;;5.24;100.00
15272;BME280;7737;51.578;7.268;2024-03-08T08:49:07;100948.28;;;5.30;100.00
15272;BME280;7737;51.578;7.268;2024-03-08T08:51:35;100948.03;;;5.05;100.00
15272;BME280;7737;51.578;7.268;2024-03-08T08:54:03;100936.13;;;5.24;100.00
15272;BME280;7737;51.578;7.268;2024-03-08T08:56:32;100929.28;;;5.52;100.00
15272;BME280;7737;51.578;7.268;2024-03-08T08:58:59;100924.47;;;5.68;100.00
15272;BME280;7737;51.578;7.268;2024-03-08T09:01:25;100915.78;;;5.97;100.00
15272;BME280;7737;51.578;7.268;2024-03-08T09:03:52;100910.59;;;5.94;100.00
15272;BME280;7737;51.578;7.268;2024-03-08T09:06:19;100913.72;;;5.76;100.00
15272;BME280;7737;51.578;7.268;2024-03-08T09:08:45;100898.22;;;5.96;100.00
15272;BME280;7737;51.578;7.268;2024-03-08T09:11:13;100898.16;;;5.99;100.00
15272;BME280;7737;51.578;7.268;2024-03-08T09:13:40;100887.66;;;5.96;100.00
15272;BME280;7737;51.578;7.268;2024-03-08T09:16:07;100890.09;;;6.34;100.00
15272;BME280;7737;51.578;7.268;2024-03-08T09:18:35;100894.19;;;6.44;100.00
15272;BME280;7737;51.578;7.268;2024-03-08T09:21:02;100883.78;;;6.09;100.00
15272;BME280;7737;51.578;7.268;2024-03-08T09:23:30;100872.00;;;6.22;100.00
15272;BME280;7737;51.578;7.268;2024-03-08T09:25:56;100861.50;;;6.48;100.00
15272;BME280;7737;51.578;7.268;2024-03-08T09:28:24;100854.09;;;6.59;100.00
15272;BME280;7737;51.578;7.268;2024-03-08T09:30:52;100842.41;;;6.40;100.00
15272;BME280;7737;51.578;7.268;2024-03-08T09:33:20;100837.00;;;6.71;100.00
15272;BME280;7737;51.578;7.268;2024-03-08T09:35:47;100818.47;;;6.72;100.00
15272;BME280;7737;51.578;7.268;2024-03-08T09:38:13;100798.25;;;6.71;100.00
15272;BME280;7737;51.578;7.268;2024-03-08T09:40:41;100810.25;;;7.08;100.00
15272;BME280;7737;51.578;7.268;2024-03-08T09:43:07;100789.88;;;6.85;100.00
15272;BME280;7737;51.578;7.268;2024-03-08T09:45:36;100785.84;;;6.73;100.00
15272;BME280;7737;51.578;7.268;2024-03-08T09:48:05;100785.31;;;6.90;100.00
15272;BME280;7737;51.578;7.268;2024-03-08T09:50:34;100775.69;;;7.14;100.00
15272;BME280;7737;51.578;7.268;2024-03-08T09:53:00;100781.19;;;7.32;100.00
15272;BME280;7737;51.578;7.268;2024-03-08T09:55:28;100774.63;;;7.18;100.00
15272;BME280;7737;51.578;7.268;2024-03-08T09:58:00;100766.25;;;7.07;100.00
15272;BME280;7737;51.578;7.268;2024-03-08T10:00:54;100760.22;;;7.28;100.00
15272;BME280;7737;51.578;7.268;2024-03-08T10:03:23;100746.03;;;7.30;100.00
15272;BME280;7737;51.578;7.268;2024-03-08T10:05:51;100742.72;;;7.24;100.00
15272;BME280;7737;51.578;7.268;2024-03-08T10:08:19;100733.44;;;7.37;100.00
15272;BME280;7737;51.578;7.268;2024-03-08T10:10:45;100730.19;;;7.29;100.00
15272;BME280;7737;51.578;7.268;2024-03-08T10:13:13;100721.00;;;7.39;100.00
15272;BME280;7737;51.578;7.268;2024-03-08T10:15:42;100710.09;;;7.48;100.00
15272;BME280;7737;51.578;7.268;2024-03-08T10:18:10;100714.34;;;7.52;100.00
15272;BME280;7737;51.578;7.268;2024-03-08T10:20:37;100699.25;;;7.31;100.00
15272;BME280;7737;51.578;7.268;2024-03-08T10:23:04;100706.19;;;7.58;100.00
15272;BME280;7737;51.578;7.268;2024-03-08T10:25:31;100687.88;;;7.52;100.00
15272;BME280;7737;51.578;7.268;2024-03-08T10:27:58;100685.25;;;7.52;100.00
15272;BME280;7737;51.578;7.268;2024-03-08T10:30:25;100689.50;;;7.79;100.00
15272;BME280;7737;51.578;7.268;2024-03-08T10:32:51;100681.78;;;7.96;100.00
15272;BME280;7737;51.578;7.268;2024-03-08T10:35:19;100666.97;;;7.69;100.00
15272;BME280;7737;51.578;7.268;2024-03-08T10:37:47;100665.81;;;7.98;100.00
15272;BME280;7737;51.578;7.268;2024-03-08T10:40:16;100665.50;;;7.84;100.00
15272;BME280;7737;51.578;7.268;2024-03-08T10:42:51;100659.63;;;7.99;100.00
15272;BME280;7737;51.578;7.268;2024-03-08T10:45:30;100654.59;;;8.36;100.00
15272;BME280;7737;51.578;7.268;2024-03-08T10:48:15;100647.66;;;8.11;100.00
15272;BME280;7737;51.578;7.268;2024-03-08T10:50:49;100652.34;;;8.26;100.00
15272;BME280;7737;51.578;7.268;2024-03-08T10:53:17;100647.31;;;8.41;100.00
15272;BME280;7737;51.578;7.268;2024-03-08T10:55:46;100631.66;;;8.14;100.00
15272;BME280;7737;51.578;7.268;2024-03-08T10:58:13;100628.00;;;7.94;100.00
15272;BME280;7737;51.578;7.268;2024-03-08T11:00:41;100630.06;;;8.10;100.00
15272;BME280;7737;51.578;7.268;2024-03-08T11:03:07;100615.16;;;8.29;100.00
15272;BME280;7737;51.578;7.268;2024-03-08T11:05:55;100615.03;;;8.32;100.00
15272;BME280;7737;51.578;7.268;2024-03-08T11:08:22;100607.13;;;8.52;100.00
15272;BME280;7737;51.578;7.268;2024-03-08T11:10:49;100595.78;;;8.28;100.00
15272;BME280;7737;51.578;7.268;2024-03-08T11:13:33;100593.66;;;8.56;100.00
15272;BME280;7737;51.578;7.268;2024-03-08T11:16:00;100596.09;;;8.61;100.00
15272;BME280;7737;51.578;7.268;2024-03-08T11:18:32;100578.63;;;8.57;100.00
15272;BME280;7737;51.578;7.268;2024-03-08T11:21:03;100563.00;;;8.51;100.00
15272;BME280;7737;51.578;7.268;2024-03-08T11:23:32;100577.16;;;9.09;100.00
15272;BME280;7737;51.578;7.268;2024-03-08T11:25:59;100560.44;;;8.88;100.00
15272;BME280;7737;51.578;7.268;2024-03-08T11:28:25;100555.75;;;8.75;100.00
15272;BME280;7737;51.578;7.268;2024-03-08T11:31:22;100560.25;;;9.11;100.00
15272;BME280;7737;51.578;7.268;2024-03-08T11:33:50;100546.78;;;8.97;100.00
15272;BME280;7737;51.578;7.268;2024-03-08T11:36:21;100546.06;;;9.31;100.00
15272;BME280;7737;51.578;7.268;2024-03-08T11:38:50;100529.00;;;9.37;100.00
15272;BME280;7737;51.578;7.268;2024-03-08T11:41:18;100531.28;;;9.80;100.00
15272;BME280;7737;51.578;7.268;2024-03-08T11:43:45;100510.06;;;9.44;100.00
15272;BME280;7737;51.578;7.268;2024-03-08T11:46:12;100512.56;;;9.47;100.00
15272;BME280;7737;51.578;7.268;2024-03-08T11:48:39;100494.13;;;9.63;100.00
15272;BME280;7737;51.578;7.268;2024-03-08T11:51:07;100481.91;;;9.59;100.00
15272;BME280;7737;51.578;7.268;2024-03-08T11:53:35;100501.22;;;10.32;100.00
15272;BME280;7737;51.578;7.268;2024-03-08T11:56:07;100491.28;;;10.19;100.00
15272;BME280;7737;51.578;7.268;2024-03-08T11:58:35;100472.75;;;10.00;100.00
15272;BME280;7737;51.578;7.268;2024-03-08T12:01:03;100459.19;;;10.23;100.00
15272;BME280;7737;51.578;7.268;2024-03-08T12:03:30;100450.59;;;10.51;100.00
15272;BME280;7737;51.578;7.268;2024-03-08T12:05:59;100434.13;;;10.45;100.00
15272;BME280;7737;51.578;7.268;2024-03-08T12:08:26;100425.72;;;10.19;100.00
15272;BME280;7737;51.578;7.268;2024-03-08T12:10:56;100414.94;;;10.22;100.00
15272;BME280;7737;51.578;7.268;2024-03-08T12:13:25;100413.00;;;10.74;100.00
15272;BME280;7737;51.578;7.268;2024-03-08T12:15:55;100394.72;;;10.53;100.00
15272;BME280;7737;51.578;7.268;2024-03-08T12:18:22;100389.50;;;10.67;100.00
15272;BME280;7737;51.578;7.268;2024-03-08T12:20:48;100376.44;;;10.78;100.00
15272;BME280;7737;51.578;7.268;2024-03-08T12:23:15;100369.28;;;10.80;100.00
15272;BME280;7737;51.578;7.268;2024-03-08T12:25:42;100357.94;;;10.92;100.00
15272;BME280;7737;51.578;7.268;2024-03-08T12:28:11;100356.28;;;11.05;100.00
15272;BME280;7737;51.578;7.268;2024-03-08T12:30:45;100341.09;;;11.07;100.00
15272;BME280;7737;51.578;7.268;2024-03-08T12:33:13;100324.28;;;11.36;100.00
15272;BME280;7737;51.578;7.268;2024-03-08T12:35:39;100316.72;;;11.44;100.00
15272;BME280;7737;51.578;7.268;2024-03-08T12:38:07;100300.50;;;11.49;100.00
15272;BME280;7737;51.578;7.268;2024-03-08T12:40:34;100292.63;;;11.76;99.94
15272;BME280;7737;51.578;7.268;2024-03-08T12:43:05;100263.50;;;11.58;96.53
15272;BME280;7737;51.578;7.268;2024-03-08T12:45:33;100242.88;;;11.62;94.92
15272;BME280;7737;51.578;7.268;2024-03-08T12:48:00;100234.66;;;11.81;93.78
15272;BME280;7737;51.578;7.268;2024-03-08T12:50:28;100214.59;;;11.75;91.75
15272;BME280;7737;51.578;7.268;2024-03-08T12:52:55;100186.78;;;11.51;89.61
15272;BME280;7737;51.578;7.268;2024-03-08T12:55:22;100183.47;;;11.61;89.79
15272;BME280;7737;51.578;7.268;2024-03-08T12:57:48;100171.09;;;11.60;88.34
15272;BME280;7737;51.578;7.268;2024-03-08T13:00:18;100151.50;;;11.61;87.03
15272;BME280;7737;51.578;7.268;2024-03-08T13:02:46;100180.31;;;11.97;89.14